Terminal Aerodrome Forecast
Issued by NWS Charleston, WV

Current Version | Previous Version | Graphics & Text | Print | Product List | Glossary On
Versions: 1 2 3 4 5 6 7 8 9 10 11 12 13 14 15 16 17 18 19 20 21 22
000
FTUS41 KRLX 161300 AAA
TAFBKW
TAF AMD
KBKW 161356Z 1614/1712 13013G27KT P6SM OVC045 WS020/14030KT
      TEMPO 1614/1616 6SM -SHRA BKN014 OVC045
     FM161800 14014G21KT 6SM SHRA BKN025
     FM162000 14015G23KT P6SM BKN040
     FM170300 15012G18KT P6SM OVC010
     FM171000 19006KT P6SM BKN008=

USA.gov is the U.S. government's official web portal to all federal, state and local government web resources and services.